Maxwell Air Force Base
KMXF : now visible

Airfield :











YOU CAN JOIN US ON...

 
LOGIN :

Register | Disclaimer

   EN    FR    IT 

 









Legend :    VFR   Marginal VFR   IFR   Intensive IFR   Very Intensive IFR
Visi :
Ceiling :
>= 8 km
>= 3000ft
5 to 8 km
1000 to 3000 ft
1500m to 5 km
500 to 1000 ft
800 to 1500m
200 to 500 ft
< 800m
< 200 ft
Symbols :   Thunderstorms  Fog  Heavy snow  Heavy precipitations  Wind > 20 kt







- Airport Elevation : 171 ft


KMXF - Maxwell Air Force Base

CURRENT METAR :
  • 191156Z AUTO 28003KT 10SM BKN033 17/16 A2955 RMK AO2 DZB22E33 SLP008 P0000 60070 70269 T01690156 10206 20169 53004 $

EXPIRED METARs :
  • 191133Z AUTO 26006KT 10SM FEW009 SCT018 BKN027 17/16 A2954 RMK AO2 DZB22E33 SLP005 $
  • 191122Z AUTO 25008KT 10SM -DZ FEW009 BKN020 OVC025 17/16 A2953 RMK AO2 DZB22 SLP001 $
  • 191056Z AUTO 26005KT 10SM FEW012 BKN025 OVC041 17/16 A2952 RMK AO2 RAE06 SLP998 P0000 T01740162 $
  • 191006Z AUTO 25003KT 10SM FEW034 BKN060 18/17 A2951 RMK AO2 LTG DSNT NE RAE06 SLP994 $
  • 190956Z AUTO 30007KT 6SM +RA BR VCTS BKN031 18/17 A2951 RMK AO2 RAE45DZB45E48RAB48 SLP994 P0023 T01780168 $

TAF AMD TAF KMXF
Valid from the 19 at 11:00 until the 20 at 17:00 UTC


191129Z 1911/2017 27012KT 8000 -SHRA OVC020 QNH2950INS
TEMPO 1911/1912 6000 -TSRA OVC020CB
BECMG 1915/1916 27015G25KT 8000 -SHRA OVC015 QNH2954INS
BECMG 1920/1921 28020G30KT 9999 NSW OVC030 QNH2959INS
BECMG 2006/2007 25012KT 8000 BR BKN020 QNH2964INS
BECMG 2015/2016 28015G25KT 9999 NSW SCT040 QNH2979INS TX17/1915Z TN07/2006Z
KZTL FIR / North America



MET'MAP, your aeronautical weather chart ! - Copyright ORBIFLY December 2007 - Disclaimer

ORBIFLY MET'MAP TEAM :

Programming & Development : Alexandra Zaïnal
Concept & Development : Baudouin d'Aumeries
Co-Development & Prog : Marc-Olivier Méhu
Technical & hardware support : Manuel Goepfert

Contact : metmap@orbifly.com




SOURCES & CREDITS :

   NOAA       Earth
Advisory